Time;durP1;ratioP1;P1;durP2;ratioP2;P2;SDS_P1;SDS_P2;PMS_P1;PMS_P2;Temp;Humidity;BMP_temperature;BMP_pressure;BME280_temperature;BME280_humidity;BME280_pressure;Samples;Min_cycle;Max_cycle;Signal;HPM_P1;HPM_P2
2021/04/30 00:00:17;;;;;;;;;;;;;;;;;;;;;
2021/04/30 00:03:29;;;;;;;3.60;1.70;;;;;;;7.47;91.88;92015.75;6275330;22;20015;-93
2021/04/30 00:06:41;;;;;;;5.00;2.20;;;;;;;7.67;92.03;92046.00;6247207;22;20026;-92
2021/04/30 00:10:06;;;;;;;4.40;2.00;;;;;;;7.40;92.18;92007.50;6269589;22;20023;-91
2021/04/30 00:13:20;;;;;;;5.43;2.10;;;;;;;7.47;92.29;92015.75;6275923;22;20087;-92
2021/04/30 00:16:26;;;;;;;6.15;2.20;;;;;;;7.46;92.22;92016.81;6274636;22;20046;-92
2021/04/30 00:19:31;;;;;;;;;;;;;;;;;;;;;
2021/04/30 00:22:37;;;;;;;;;;;;;;;;;;;;;
2021/04/30 00:25:45;;;;;;;;;;;;;;;;;;;;;
2021/04/30 00:28:54;;;;;;;4.85;1.30;;;;;;;7.68;90.39;92053.53;6255814;22;20091;-91
2021/04/30 00:31:48;;;;;;;3.28;1.60;;;;;;;7.27;91.94;92017.53;6256056;22;20087;-92
2021/04/30 00:34:38;;;;;;;4.55;2.00;;;;;;;7.48;91.86;92046.72;6275750;22;20091;-91
2021/04/30 00:37:40;;;;;;;;;;;;;;;;;;;;;
2021/04/30 00:41:04;;;;;;;3.25;1.70;;;;;;;7.41;91.59;92027.28;6253788;22;20015;-92
2021/04/30 00:46:58;;;;;;;;;;;;;;;;;;;;;
2021/04/30 00:49:40;;;;;;;4.65;1.80;;;;;;;7.35;92.18;92017.97;6278507;22;20094;-91
2021/04/30 00:52:43;;;;;;;;;;;;;;;;;;;;;
2021/04/30 00:55:50;;;;;;;3.33;1.60;;;;;;;7.66;92.58;92060.84;6277853;22;20238;-92
2021/04/30 00:58:56;;;;;;;2.20;1.20;;;;;;;7.37;90.81;92018.47;6268858;22;20019;-91
2021/04/30 01:01:32;;;;;;;9.00;1.10;;;;;;;7.54;89.61;92041.44;6276390;22;20008;-91
2021/04/30 01:04:04;;;;;;;1.67;0.90;;;;;;;7.39;90.15;92013.75;6276248;22;20075;-91
2021/04/30 01:07:31;;;;;;;;;;;;;;;;;;;;;
2021/04/30 01:10:20;;;;;;;;;;;;;;;;;;;;;
2021/04/30 01:13:12;;;;;;;1.13;0.80;;;;;;;7.39;90.70;92013.75;6276144;22;20023;-92
2021/04/30 01:16:27;;;;;;;;;;;;;;;7.68;90.97;92058.75;6254674;22;20022;-91
2021/04/30 01:19:31;;;;;;;;;;;;;;;;;;;;;
2021/04/30 01:22:19;;;;;;;1.85;1.00;;;;;;;7.38;91.20;92009.59;6278736;22;20086;-91
2021/04/30 01:25:38;;;;;;;1.45;1.00;;;;;;;7.39;91.07;92013.75;6254789;22;20298;-91
2021/04/30 01:28:12;;;;;;;3.75;1.30;;;;;;;7.36;91.31;92016.91;6250823;22;20016;-91
2021/04/30 01:30:47;;;;;;;2.53;1.35;;;;;;;7.42;91.74;92021.00;6250741;22;20023;-91
2021/04/30 01:34:04;;;;;;;1.95;1.10;;;;;;;7.42;92.16;92015.81;6277235;22;20018;-91
2021/04/30 01:37:32;;;;;;;;;;;;;;;;;;;;;
2021/04/30 01:43:17;;;;;;;1.95;1.20;;;;;;;7.33;92.37;92002.63;6254753;22;20015;-92
2021/04/30 01:46:05;;;;;;;;;;;;;;;;;;;;;
2021/04/30 01:48:47;;;;;;;2.70;1.45;;;;;;;7.22;92.20;91983.72;6276389;22;20069;-91
2021/04/30 01:51:46;;;;;;;1.60;0.93;;;;;;;7.29;92.39;92002.41;6276910;22;20424;-91
2021/04/30 01:55:09;;;;;;;1.33;1.00;;;;;;;7.22;92.18;91999.34;6248983;22;20027;-92
2021/04/30 01:58:15;;;;;;;1.70;0.90;;;;;;;7.35;88.17;92020.56;6275345;22;20015;-91
2021/04/30 02:00:57;;;;;;;0.65;0.60;;;;;;;7.46;88.20;92014.19;6246816;22;20011;-91
2021/04/30 02:04:07;;;;;;;1.83;0.80;;;;;;;7.39;87.02;92003.34;6275488;22;20015;-92
2021/04/30 02:07:26;;;;;;;1.20;0.77;;;;;;;7.38;87.32;91993.97;6253402;22;20395;-91
2021/04/30 02:10:34;;;;;;;1.10;0.88;;;;;;;7.29;87.19;91986.78;6267476;22;20016;-92
2021/04/30 02:13:51;;;;;;;1.70;1.00;;;;;;;7.60;88.32;92045.56;6255858;22;20103;-91
2021/04/30 02:22:59;;;;;;;2.15;0.88;;;;;;;7.23;89.85;92003.50;6274544;22;20020;-92
2021/04/30 02:26:24;;;;;;;;;;;;;;;;;;;;;
2021/04/30 02:29:43;;;;;;;1.60;0.90;;;;;;;7.12;89.71;91991.66;6277660;22;20098;-91
2021/04/30 02:32:33;;;;;;;1.85;0.90;;;;;;;7.30;89.83;92016.97;6258392;22;20016;-92
2021/04/30 02:35:39;;;;;;;;;;;;;;;;;;;;;
2021/04/30 02:38:36;;;;;;;;;;;;;;;;;;;;;
2021/04/30 02:41:35;;;;;;;6.63;1.13;;;;;;;7.32;90.14;92026.31;6256117;22;20012;-91
2021/04/30 02:44:21;;;;;;;1.17;0.80;;;;;;;7.18;88.22;92003.56;6251103;22;20387;-92
2021/04/30 02:47:07;;;;;;;0.82;0.73;;;;;;;7.30;88.21;92013.59;6249540;22;20331;-91
2021/04/30 02:50:19;;;;;;;0.90;0.70;;;;;;;7.23;88.02;92010.56;6273867;22;20094;-91
2021/04/30 02:53:22;;;;;;;1.40;0.90;;;;;;;7.49;88.18;92044.88;6250175;22;20026;-92
2021/04/30 02:56:34;;;;;;;;;;;;;;;;;;;;;
2021/04/30 02:59:55;;;;;;;;;;;;;;;;;;;;;
2021/04/30 03:05:43;;;;;;;;;;;;;;;;;;;;;
2021/04/30 03:08:25;;;;;;;1.08;0.80;;;;;;;7.39;89.52;92027.56;6254632;22;20019;-92
2021/04/30 03:14:46;;;;;;;1.35;0.90;;;;;;;7.27;90.54;92008.91;6275482;22;20027;-92
2021/04/30 03:17:50;;;;;;;1.88;0.95;;;;;;;7.29;91.19;92023.25;6275267;22;20518;-92
2021/04/30 03:21:11;;;;;;;;;;;;;;;;;;;;;
2021/04/30 03:24:10;;;;;;;;;;;;;;;;;;;;;
2021/04/30 03:27:11;;;;;;;1.13;0.80;;;;;;;7.59;91.10;92059.63;6277022;22;20011;-91
2021/04/30 03:33:42;;;;;;;1.33;0.95;;;;;;;7.60;91.46;92061.19;6251114;22;20098;-91
2021/04/30 03:36:26;;;;;;;;;;;;;;;;;;;;;
2021/04/30 03:42:24;;;;;;;2.40;1.10;;;;;;;7.33;91.44;92010.44;6273057;22;20047;-92
2021/04/30 03:46:00;;;;;;;;;;;;;;;;;;;;;
2021/04/30 03:48:45;;;;;;;2.90;1.17;;;;;;;7.30;90.98;92001.34;6271661;22;20015;-91
2021/04/30 03:55:32;;;;;;;1.58;1.05;;;;;;;7.39;90.96;92021.56;6255054;22;20065;-91
2021/04/30 03:58:38;;;;;;;1.40;0.88;;;;;;;7.44;91.31;92024.88;6256017;22;20028;-91
2021/04/30 04:01:45;;;;;;;;;;;;;;;;;;;;;
2021/04/30 04:04:52;;;;;;;;;;;;;;;;;;;;;
2021/04/30 04:08:32;;;;;;;;;;;;;;;;;;;;;
2021/04/30 04:11:20;;;;;;;1.42;0.90;;;;;;;7.52;91.85;92041.75;6263587;22;20050;-92
2021/04/30 04:14:33;;;;;;;1.50;0.90;;;;;;;7.60;91.54;92061.19;6265371;22;20012;-91
2021/04/30 04:17:43;;;;;;;;;;;;;;;;;;;;;
2021/04/30 04:21:02;;;;;;;3.35;1.10;;;;;;;7.54;91.80;92050.03;6275467;22;20015;-92
2021/04/30 04:24:02;;;;;;;1.17;0.82;;;;;;;7.54;91.64;92055.25;6279604;22;20020;-92
2021/04/30 04:30:07;;;;;;;1.27;1.00;;;;;;;7.47;91.97;92037.34;6261062;22;20039;-92
2021/04/30 04:32:38;;;;;;;2.20;1.10;;;;;;;7.66;92.18;92068.66;6277396;22;20019;-92
2021/04/30 04:35:37;;;;;;;1.58;1.00;;;;;;;7.49;91.71;92044.88;6254425;22;20400;-92
2021/04/30 04:39:31;;;;;;;2.50;1.27;;;;;;;7.59;91.84;92062.22;6254319;22;20015;-91
2021/04/30 04:42:11;;;;;;;1.63;1.10;;;;;;;7.51;92.09;92051.38;6257164;22;20111;-91
2021/04/30 04:45:19;;;;;;;2.25;1.20;;;;;;;7.55;92.27;92050.84;6249820;22;20470;-91
2021/04/30 04:48:45;;;;;;;5.15;1.27;;;;;;;7.56;92.24;92058.34;6251157;22;20026;-94
2021/04/30 04:52:11;;;;;;;;;;;;;;;;;;;;;
2021/04/30 04:55:09;;;;;;;;;;;;;;;;;;;;;
2021/04/30 04:58:36;;;;;;;;;;;;;;;;;;;;;
2021/04/30 05:01:22;;;;;;;;;;;;;;;;;;;;;
2021/04/30 05:04:48;;;;;;;1.55;1.10;;;;;;;7.73;91.79;92057.91;6277778;22;20480;-92
2021/04/30 05:07:37;;;;;;;1.88;1.10;;;;;;;7.97;91.46;92070.94;6252733;22;20022;-91
2021/04/30 05:11:00;;;;;;;1.58;0.98;;;;;;;8.14;90.71;92083.47;6255299;22;20095;-91
2021/04/30 05:17:52;;;;;;;;;;;;;;;;;;;;;
2021/04/30 05:20:56;;;;;;;1.75;0.90;;;;;;;8.52;90.18;92125.28;6067219;23;20018;-94
2021/04/30 05:24:13;;;;;;;1.02;0.80;;;;;;;8.21;90.44;92081.28;6050259;23;20469;-92
2021/04/30 05:27:14;;;;;;;1.10;0.60;;;;;;;8.43;90.53;92114.69;6069581;23;20098;-92
2021/04/30 05:30:24;;;;;;;2.08;0.90;;;;;;;8.25;90.22;92084.13;6096463;23;20096;-93
2021/04/30 05:33:08;;;;;;;;;;;;;;;;;;;;;
2021/04/30 05:36:26;;;;;;;;;;;;;;;;;;;;;
2021/04/30 05:39:57;;;;;;;;;;;;;;;;;;;;;
2021/04/30 05:46:45;;;;;;;;;;;;;;;;;;;;;
2021/04/30 05:49:32;;;;;;;;;;;;;;;;;;;;;
2021/04/30 05:52:43;;;;;;;;;;;;;;;;;;;;;
2021/04/30 05:55:32;;;;;;;70.75;4.25;;;;;;;7.91;92.78;92098.88;6277926;22;20018;-93
2021/04/30 05:58:52;;;;;;;24.42;4.07;;;;;;;8.13;93.01;92118.44;6253121;22;20050;-93
2021/04/30 06:02:03;;;;;;;84.30;5.18;;;;;;;8.31;93.66;92140.38;6267945;22;20038;-93
2021/04/30 06:05:10;;;;;;;;;;;;;;;;;;;;;
2021/04/30 06:08:08;;;;;;;190.48;6.47;;;;;;;8.22;92.36;92095.09;6269666;22;20114;-92
2021/04/30 06:10:56;;;;;;;;;;;;;;;;;;;;;
2021/04/30 06:14:21;;;;;;;;;;;;;;;;;;;;;
2021/04/30 06:18:00;;;;;;;12.68;6.70;;;;;;;8.30;92.12;92107.53;6277883;22;20134;-93
2021/04/30 06:21:02;;;;;;;5.63;2.80;;;;;;;8.11;91.55;92095.25;6243544;22;20023;-91
2021/04/30 06:24:37;;;;;;;3.88;1.65;;;;;;;8.03;91.43;92105.50;6208943;22;20030;-92
2021/04/30 06:27:29;;;;;;;;;;;;;;;;;;;;;
2021/04/30 06:30:20;;;;;;;7.95;2.30;;;;;;;8.10;90.09;92104.09;6276349;22;20098;-91
2021/04/30 06:33:09;;;;;;;;;;;;;;;8.48;90.64;92145.16;6251249;22;20500;-92
2021/04/30 06:35:52;;;;;;;4.25;2.00;;;;;;;8.44;90.40;92124.06;6276178;22;19922;-92
2021/04/30 06:42:01;;;;;;;;;;;;;;;;;;;;;
2021/04/30 06:44:56;;;;;;;3.50;1.70;;;;;;;8.83;90.18;92151.72;6254392;22;20024;-92
2021/04/30 06:47:50;;;;;;;;;;;;;;;;;;;;;
2021/04/30 06:50:53;;;;;;;3.10;1.30;;;;;;;8.90;89.67;92144.31;6253329;22;20103;-92
2021/04/30 06:57:35;;;;;;;;;;;;;;;;;;;;;
2021/04/30 07:00:26;;;;;;;;;;;;;;;;;;;;;
2021/04/30 07:03:30;;;;;;;;;;;;;;;;;;;;;
2021/04/30 07:06:38;;;;;;;2.05;1.20;;;;;;;9.19;84.23;92153.81;6254947;22;20023;-92
2021/04/30 07:16:11;;;;;;;2.17;1.10;;;;;;;8.93;84.46;92122.06;6274905;22;20012;-92
2021/04/30 07:19:19;;;;;;;2.50;1.02;;;;;;;9.28;86.06;92167.75;6251404;22;20446;-93
2021/04/30 07:22:08;;;;;;;;;;;;;;;;;;;;;
2021/04/30 07:28:26;;;;;;;1.75;1.10;;;;;;;8.98;84.78;92129.06;6277042;22;20408;-92
2021/04/30 07:31:28;;;;;;;2.22;1.30;;;;;;;8.89;85.25;92121.88;6259207;22;20087;-91
2021/04/30 07:41:45;;;;;;;1.95;1.20;;;;;;;8.82;85.62;92118.84;6274522;22;20443;-92
2021/04/30 07:44:59;;;;;;;2.45;1.15;;;;;;;8.83;85.77;92123.00;6251645;22;20019;-91
2021/04/30 07:48:03;;;;;;;2.33;1.40;;;;;;;8.93;85.13;92140.34;6260609;22;20103;-92
2021/04/30 07:51:03;;;;;;;5.25;1.35;;;;;;;8.85;86.20;92146.19;6231725;22;20012;-92
2021/04/30 07:54:16;;;;;;;;;;;;;;;;;;;;;
2021/04/30 07:57:47;;;;;;;3.17;1.80;;;;;;;8.73;87.92;92130.97;6278899;22;20040;-92
2021/04/30 08:00:25;;;;;;;3.85;1.70;;;;;;;8.66;87.11;92125.34;6230843;22;20020;-92
2021/04/30 08:03:23;;;;;;;;;;;;;;;;;;;;;
2021/04/30 08:06:33;;;;;;;3.55;1.98;;;;;;;8.83;86.63;92136.06;6276387;22;20099;-93
2021/04/30 08:09:43;;;;;;;2.75;1.70;;;;;;;8.81;85.98;92140.78;6272519;22;20069;-92
2021/04/30 08:12:39;;;;;;;5.65;1.73;;;;;;;9.13;87.08;92191.50;6274408;22;20016;-93
2021/04/30 08:19:27;;;;;;;;;;;;;;;;;;;;;
2021/04/30 08:25:42;;;;;;;5.20;2.30;;;;;;;9.02;87.32;92192.69;6274867;22;20083;-92
2021/04/30 08:28:53;;;;;;;3.72;1.98;;;;;;;8.85;87.87;92187.97;6284480;22;20035;-92
2021/04/30 08:31:52;;;;;;;5.10;2.20;;;;;;;8.95;88.08;92195.66;6260637;22;20490;-92
2021/04/30 08:34:48;;;;;;;5.32;2.40;;;;;;;9.09;87.34;92214.00;6287985;22;20022;-92
2021/04/30 08:37:45;;;;;;;;;;;;;;;;;;;;;
2021/04/30 08:41:09;;;;;;;9.35;2.58;;;;;;;9.29;88.06;92210.31;6263727;22;20070;-92
2021/04/30 08:44:17;;;;;;;3.90;2.40;;;;;;;9.14;86.28;92195.66;6285163;22;20039;-93
2021/04/30 08:47:16;;;;;;;4.65;2.92;;;;;;;9.26;88.72;92188.16;6285194;22;20154;-92
2021/04/30 08:50:14;;;;;;;5.18;3.33;;;;;;;9.36;87.17;92164.47;6231578;22;20012;-92
2021/04/30 08:53:45;;;;;;;5.68;3.10;;;;;;;9.78;85.85;92215.03;6285065;22;20047;-91
2021/04/30 08:56:25;;;;;;;6.72;3.50;;;;;;;9.64;85.99;92176.88;6260634;22;20008;-92
2021/04/30 09:03:01;;;;;;;8.30;4.95;;;;;;;9.87;86.78;92175.16;6299684;22;20024;-92
2021/04/30 09:05:59;;;;;;;9.05;6.10;;;;;;;9.83;86.27;92174.19;6286030;22;20008;-93
2021/04/30 09:09:07;;;;;;;;;;;;;;;;;;;;;
2021/04/30 09:12:55;;;;;;;13.82;6.78;;;;;;;10.02;86.93;92206.28;6302296;22;20015;-91
2021/04/30 09:15:39;;;;;;;11.70;7.43;;;;;;;9.69;86.35;92201.06;6300655;22;20027;-92
2021/04/30 09:22:29;;;;;;;;;;;;;;;;;;;;;
2021/04/30 09:25:57;;;;;;;101.25;9.05;;;;;;;9.52;90.29;92187.75;6303129;22;20051;-92
2021/04/30 09:32:21;;;;;;;29.05;9.43;;;;;;;9.24;90.02;92173.84;6277989;22;20016;-91
2021/04/30 09:35:20;;;;;;;13.98;8.85;;;;;;;9.47;90.25;92211.34;6255572;22;20008;-92
2021/04/30 09:38:16;;;;;;;13.05;7.90;;;;;;;9.33;89.22;92206.84;6214620;22;20019;-94
2021/04/30 09:41:51;;;;;;;14.30;9.23;;;;;;;9.32;90.06;92205.31;6260415;22;20012;-94
2021/04/30 09:44:49;;;;;;;12.20;7.88;;;;;;;9.01;88.53;92167.66;6280946;22;20043;-94
2021/04/30 09:55:18;;;;;;;8.98;6.68;;;;;;;8.80;91.36;92169.78;6274035;22;20307;-94
2021/04/30 09:58:23;;;;;;;7.68;5.03;;;;;;;8.87;89.62;92193.69;6253963;22;20042;-94
2021/04/30 10:02:06;;;;;;;6.68;4.38;;;;;;;8.85;89.90;92186.16;6255608;22;20059;-94
2021/04/30 10:08:10;;;;;;;5.68;3.47;;;;;;;9.06;88.62;92211.97;6227279;22;20077;-95
2021/04/30 10:11:09;;;;;;;5.95;3.38;;;;;;;8.95;89.70;92227.75;6254880;22;20019;-93
2021/04/30 10:14:23;;;;;;;6.15;3.80;;;;;;;8.69;90.05;92198.63;6246642;22;20490;-94
2021/04/30 10:17:07;;;;;;;5.40;3.33;;;;;;;8.64;89.89;92188.22;6238014;22;20389;-95
2021/04/30 10:19:59;;;;;;;10.73;3.67;;;;;;;8.71;89.75;92180.84;6252966;22;20361;-94
2021/04/30 10:23:02;;;;;;;;;;;;;;;;;;;;;
2021/04/30 10:26:32;;;;;;;;;;;;;;;;;;;;;
2021/04/30 11:11:25;;;;;;;8.48;5.88;;;;;;;9.46;88.97;92197.53;6283208;22;20062;-94
2021/04/30 11:17:48;;;;;;;;;;;;;;;;;;;;;
2021/04/30 11:24:40;;;;;;;;;;;;;;;;;;;;;
2021/04/30 11:28:03;;;;;;;16.60;10.13;;;;;;;9.12;90.23;92159.38;6309761;22;20094;-95
2021/04/30 12:30:25;;;;;;;;;;;;;;;;;;;;;
2021/04/30 12:36:46;;;;;;;;;;;;;;;;;;;;;
2021/04/30 12:40:07;;;;;;;14.50;8.82;;;;;;;10.49;84.95;92183.44;6307249;22;20011;-93
2021/04/30 12:43:12;;;;;;;16.27;10.00;;;;;;;10.72;84.66;92160.72;6269638;22;20402;-93
2021/04/30 12:46:23;;;;;;;16.05;10.52;;;;;;;11.12;83.68;92158.25;6280104;22;20340;-93
2021/04/30 12:49:04;;;;;;;19.13;10.52;;;;;;;11.09;82.82;92139.75;6258211;22;20091;-92
2021/04/30 12:52:18;;;;;;;;;;;;;;;;;;;;;
2021/04/30 12:55:45;;;;;;;14.07;9.63;;;;;;;11.11;84.17;92135.78;6288579;22;20011;-92
2021/04/30 12:59:42;;;;;;;16.70;10.55;;;;;;;10.90;83.53;92129.44;6177978;23;20020;-93
2021/04/30 13:02:57;;;;;;;13.90;8.57;;;;;;;11.81;81.51;92171.06;6207842;23;20159;-93
2021/04/30 13:05:36;;;;;;;14.13;9.70;;;;;;;12.35;79.91;92149.22;6153532;23;20063;-93
2021/04/30 13:08:26;;;;;;;13.00;8.93;;;;;;;12.09;78.76;92131.53;6165996;23;20349;-93
2021/04/30 13:11:44;;;;;;;13.52;8.68;;;;;;;12.01;76.61;92124.44;6193707;23;20036;-92
2021/04/30 13:14:42;;;;;;;;;;;;;;;;;;;;;
2021/04/30 13:17:51;;;;;;;10.60;7.18;;;;;;;12.08;77.04;92157.00;6262054;22;20020;-92
2021/04/30 13:20:56;;;;;;;11.05;7.38;;;;;;;11.24;81.42;92094.88;6244994;22;20019;-93
2021/04/30 13:24:25;;;;;;;11.15;7.38;;;;;;;10.71;83.18;92112.03;6297009;22;20011;-93
2021/04/30 13:27:21;;;;;;;;;;;;;;;;;;;;;
2021/04/30 13:30:13;;;;;;;;;;;;;;;;;;;;;
2021/04/30 13:33:38;;;;;;;;;;;;;;;;;;;;;
2021/04/30 13:36:33;;;;;;;9.60;6.60;;;;;;;10.86;84.24;92089.22;6309607;22;20082;-92
2021/04/30 13:42:50;;;;;;;8.43;5.00;;;;;;;11.38;79.24;92140.13;6268031;22;20026;-93
2021/04/30 13:45:36;;;;;;;7.53;5.10;;;;;;;10.93;79.37;92098.19;6256081;22;20019;-93
2021/04/30 13:52:44;;;;;;;;;;;;;;;;;;;;;
2021/04/30 13:55:37;;;;;;;13.93;7.28;;;;;;;11.90;79.47;92112.66;6281016;22;20061;-92
2021/04/30 13:58:11;;;;;;;8.27;5.43;;;;;;;11.70;77.97;92093.72;6232744;22;20023;-91
2021/04/30 14:01:00;;;;;;;;;;;;;;;;;;;;;
2021/04/30 14:07:12;;;;;;;;;;;;;;;;;;;;;
2021/04/30 14:10:17;;;;;;;13.88;9.18;;;;;;;11.24;85.33;92123.69;6287612;22;20090;-92
2021/04/30 14:14:04;;;;;;;14.43;9.38;;;;;;;10.88;87.31;92090.47;6283940;22;20055;-91
2021/04/30 14:20:25;;;;;;;;;;;;;;;;;;;;;
2021/04/30 14:23:43;;;;;;;;;;;;;;;;;;;;;
2021/04/30 14:26:43;;;;;;;14.52;9.50;;;;;;;10.96;84.59;92087.13;6308941;22;20074;-93
2021/04/30 14:32:50;;;;;;;18.05;11.35;;;;;;;10.89;89.70;92122.66;6269809;22;20376;-92
2021/04/30 14:36:14;;;;;;;558.08;24.83;;;;;;;10.46;91.10;92084.56;6264432;22;20086;-93
2021/04/30 14:39:23;;;;;;;13.13;9.88;;;;;;;10.44;88.64;92099.78;6303516;22;20059;-92
2021/04/30 14:46:00;;;;;;;13.45;8.52;;;;;;;10.34;87.85;92111.25;6267363;22;20089;-93
2021/04/30 14:52:37;;;;;;;;;;;;;;;;;;;;;
2021/04/30 14:55:33;;;;;;;;;;;;;;;;;;;;;
2021/04/30 14:58:39;;;;;;;;;;;;;;;;;;;;;
2021/04/30 15:01:37;;;;;;;;;;;;;;;;;;;;;
2021/04/30 15:04:54;;;;;;;11.73;7.05;;;;;;;11.07;85.10;92076.41;6291495;22;20016;-93
2021/04/30 15:08:17;;;;;;;7.93;4.55;;;;;;;11.46;83.10;92109.81;6267517;22;20511;-93
2021/04/30 15:11:50;;;;;;;;;;;;;;;;;;;;;
2021/04/30 15:21:51;;;;;;;5.47;3.42;;;;;;;11.65;81.44;92078.13;6306528;22;20011;-93
2021/04/30 15:25:05;;;;;;;7.38;3.80;;;;;;;11.85;81.09;92113.53;6258396;22;20022;-94
2021/04/30 15:31:51;;;;;;;;;;;;;;;;;;;;;
2021/04/30 15:38:43;;;;;;;6.72;3.75;;;;;;;11.62;81.96;92069.03;6275268;22;20130;-92
2021/04/30 15:41:46;;;;;;;;;;;;;;;;;;;;;
2021/04/30 15:45:21;;;;;;;;;;;;;;;;;;;;;
2021/04/30 15:52:09;;;;;;;;;;;;;;;;;;;;;
2021/04/30 15:55:27;;;;;;;;;;;;;;;;;;;;;
2021/04/30 15:58:42;;;;;;;7.55;4.63;;;;;;;11.36;84.32;92068.88;6244635;22;20033;-92
2021/04/30 16:01:59;;;;;;;7.47;4.45;;;;;;;11.36;84.55;92079.38;6231534;22;20031;-93
2021/04/30 16:09:08;;;;;;;7.18;4.45;;;;;;;11.53;83.70;92109.34;6271231;22;20062;-92
2021/04/30 16:12:16;;;;;;;;;;;;;;;;;;;;;
2021/04/30 16:15:28;;;;;;;;;;;;;;;;;;;;;
2021/04/30 16:18:48;;;;;;;;;;;;;;;;;;;;;
2021/04/30 16:22:10;;;;;;;;;;;;;;;;;;;;;
2021/04/30 16:25:20;;;;;;;;;;;;;;;;;;;;;
2021/04/30 16:46:10;;;;;;;7.30;4.55;;;;;;;10.88;85.74;92064.28;6124351;23;20064;-93
2021/04/30 16:49:01;;;;;;;;;;;;;;;;;;;;;
2021/04/30 16:52:10;;;;;;;12.00;4.93;;;;;;;10.63;85.97;92031.63;6245270;22;20520;-93
2021/04/30 16:55:16;;;;;;;11.80;4.63;;;;;;;10.73;86.30;92062.78;6190125;23;20052;-93
2021/04/30 19:39:02;;;;;;;693.15;19.33;;;;;;;9.26;92.01;92075.09;6292743;22;20265;-91
2021/04/30 19:42:22;;;;;;;181.30;12.32;;;;;;;9.50;92.32;92119.31;6223465;23;20099;-92
2021/04/30 19:45:48;;;;;;;12.43;8.23;;;;;;;9.27;92.52;92093.06;6272873;22;20022;-92
2021/04/30 19:52:23;;;;;;;9.20;5.85;;;;;;;9.46;92.08;92111.31;6276364;22;20094;-94
2021/04/30 19:58:46;;;;;;;;;;;;;;;;;;;;;
2021/04/30 20:02:18;;;;;;;10.43;6.82;;;;;;;9.35;91.88;92104.72;6261635;22;20019;-93
2021/04/30 20:05:52;;;;;;;10.18;6.70;;;;;;;9.22;92.19;92095.00;6238531;22;20031;-92
2021/04/30 20:08:46;;;;;;;;;;;;;;;;;;;;;
2021/04/30 20:15:40;;;;;;;;;;;;;;;;;;;;;
2021/04/30 20:18:51;;;;;;;8.75;5.22;;;;;;;9.36;91.20;92117.47;6212178;22;20414;-92
2021/04/30 20:22:37;;;;;;;6.80;4.38;;;;;;;9.40;91.46;92120.28;6271362;22;20026;-92
2021/04/30 20:42:52;;;;;;;5.60;3.63;;;;;;;9.20;91.85;92131.84;6085714;23;20486;-92
2021/04/30 20:51:16;;;;;;;;;;;;;;;;;;;;;
2021/04/30 21:16:47;;;;;;;;;;;;;;;;;;;;;
2021/04/30 21:19:56;;;;;;;11.10;5.40;;;;;;;9.41;92.68;92139.34;5933593;24;20033;-92
2021/04/30 21:22:50;;;;;;;;;;;;;;;;;;;;;
2021/04/30 21:25:42;;;;;;;;;;;;;;;;;;;;;
2021/04/30 21:28:30;;;;;;;10.63;5.50;;;;;;;9.10;92.72;92103.28;5955172;24;20024;-93
2021/04/30 21:31:46;;;;;;;16.17;8.50;;;;;;;9.10;92.55;92108.50;6101477;23;20044;-93
2021/04/30 21:35:15;;;;;;;10.30;6.23;;;;;;;9.35;92.48;92152.50;6073759;23;20045;-92
2021/04/30 21:38:03;;;;;;;8.40;5.45;;;;;;;9.33;92.32;92146.78;6167410;23;20281;-92
2021/04/30 21:41:43;;;;;;;;;;;;;;;;;;;;;
2021/04/30 21:47:34;;;;;;;9.15;5.82;;;;;;;9.06;92.50;92104.91;6237774;22;20461;-91
2021/04/30 21:50:39;;;;;;;11.38;6.35;;;;;;;9.13;92.63;92118.38;6245680;22;20144;-92
2021/04/30 21:53:39;;;;;;;12.38;7.82;;;;;;;9.04;92.84;92105.19;6231418;22;20022;-92
2021/04/30 21:56:18;;;;;;;13.13;8.07;;;;;;;9.09;92.43;92106.94;6231504;22;20421;-91
2021/04/30 21:59:07;;;;;;;13.60;8.30;;;;;;;9.06;92.83;92108.28;6229604;22;20067;-92
2021/04/30 22:01:52;;;;;;;15.75;8.77;;;;;;;9.18;92.98;92132.13;6252888;22;20450;-91
2021/04/30 22:05:04;;;;;;;;;;;;;;;;;;;;;
2021/04/30 22:07:43;;;;;;;12.73;8.20;;;;;;;9.05;92.71;92109.38;6235406;22;20099;-92
2021/04/30 22:10:53;;;;;;;;;;;;;;;;;;;;;
2021/04/30 22:13:57;;;;;;;;;;;;;;;;;;;;;
2021/04/30 22:17:17;;;;;;;;;;;;;;;;;;;;;
2021/04/30 22:23:04;;;;;;;13.18;8.82;;;;;;;9.18;92.32;92142.56;6242052;22;20045;-92
2021/04/30 22:26:13;;;;;;;;;;;;;;;;;;;;;
2021/04/30 22:29:33;;;;;;;;;;;;;;;;;;;;;
2021/04/30 22:32:50;;;;;;;;;;;;;;;;;;;;;
2021/04/30 22:36:04;;;;;;;16.10;9.60;;;;;;;9.14;93.27;92117.31;6151248;23;20117;-91
2021/04/30 22:39:11;;;;;;;16.05;9.63;;;;;;;9.33;92.87;92136.34;6254853;22;20421;-92
2021/04/30 22:46:16;;;;;;;;;;;;;;;;;;;;;
2021/04/30 22:55:18;;;;;;;15.70;10.35;;;;;;;9.37;92.74;92139.94;6280946;22;20045;-92
2021/04/30 22:58:17;;;;;;;15.52;10.18;;;;;;;9.21;92.45;92120.34;6250443;22;20021;-92
2021/04/30 23:00:59;;;;;;;;;;;;;;;9.36;92.42;92143.59;6230244;22;20017;-92
2021/04/30 23:03:57;;;;;;;17.95;10.13;;;;;;;9.17;92.49;92114.13;6205092;22;19923;-92
2021/04/30 23:07:25;;;;;;;15.52;9.93;;;;;;;9.38;92.58;92141.47;6151725;23;20101;-92
2021/04/30 23:10:49;;;;;;;15.65;10.77;;;;;;;9.32;92.82;92128.78;6195607;22;20022;-91
2021/04/30 23:13:34;;;;;;;18.27;10.82;;;;;;;9.13;92.70;92094.88;6253935;22;20074;-92
2021/04/30 23:16:18;;;;;;;;;;;;;;;;;;;;;
2021/04/30 23:19:31;;;;;;;17.23;10.35;;;;;;;9.30;92.91;92116.03;6254728;22;20093;-92
2021/04/30 23:29:28;;;;;;;20.98;11.80;;;;;;;9.27;93.78;92110.56;6153147;22;20104;-91
2021/04/30 23:32:49;;;;;;;22.80;12.00;;;;;;;9.23;93.30;92102.56;6222349;22;20094;-93
2021/04/30 23:35:49;;;;;;;989.30;25.60;;;;;;;9.01;93.41;92076.28;6254477;22;20104;-92
2021/04/30 23:38:33;;;;;;;324.27;14.00;;;;;;;8.93;93.85;92075.84;6151741;23;20095;-92
2021/04/30 23:41:28;;;;;;;14.85;9.40;;;;;;;9.06;93.73;92087.41;6244837;22;20135;-92
2021/04/30 23:44:58;;;;;;;15.07;9.45;;;;;;;9.19;93.14;92106.78;6227242;22;20066;-91
2021/04/30 23:47:59;;;;;;;13.20;9.45;;;;;;;9.00;93.07;92077.34;6151658;23;20104;-92
2021/04/30 23:51:11;;;;;;;13.68;9.27;;;;;;;9.04;93.00;92086.16;6236697;22;20707;-93
2021/04/30 23:53:58;;;;;;;;;;;;;;;;;;;;;
2021/04/30 23:56:47;;;;;;;16.83;10.25;;;;;;;9.25;93.21;92121.31;6151561;23;20078;-92
